DFEWG EDDN-EDDN

Flight info

Callsign DFEWG
Flight time 0h 28m
Altitude
Route
Aircraft SF50

Departure

Time 2026-05-07 12:36
Airport Nuremberg Airport (EDDN)

Arrival

Time 2026-05-07 13:04
Airport Nuremberg Airport (EDDN)
Time Latitude Longitude Altitude Speed Heading
2026-05-07 12:28 49.49493 11.06898 1019 ft 0 kts 282°
2026-05-07 12:30 49.49495 11.06894 1019 ft 3 kts 337°
2026-05-07 12:30 49.49525 11.06958 1019 ft 12 kts 99°
2026-05-07 12:30 49.49514 11.07084 1019 ft 11 kts 99°
2026-05-07 12:31 49.49515 11.07193 1019 ft 7 kts 19°
2026-05-07 12:31 49.49558 11.07199 1020 ft 7 kts 10°
2026-05-07 12:31 49.49622 11.07214 1020 ft 11 kts 15°
2026-05-07 12:31 49.49636 11.07242 1020 ft 0 kts 83°
2026-05-07 12:32 49.49682 11.07228 1020 ft 14 kts
2026-05-07 12:33 49.49716 11.07436 1022 ft 12 kts 98°
2026-05-07 12:33 49.49703 11.07558 1025 ft 11 kts 101°
2026-05-07 12:33 49.49692 11.07678 1026 ft 12 kts 97°
2026-05-07 12:34 49.49652 11.07793 1025 ft 12 kts 100°
2026-05-07 12:34 49.49641 11.07940 1024 ft 16 kts 99°
2026-05-07 12:34 49.49624 11.08117 1026 ft 17 kts 98°
2026-05-07 12:34 49.49605 11.08309 1025 ft 17 kts 94°
2026-05-07 12:35 49.49605 11.08348 1025 ft 1 kts 81°
2026-05-07 12:35 49.49609 11.08374 1025 ft 8 kts 56°
2026-05-07 12:35 49.49665 11.08480 1024 ft 14 kts 53°
2026-05-07 12:35 49.49698 11.08545 1025 ft 0 kts 29°
2026-05-07 12:36 49.49710 11.08554 1024 ft 10 kts 25°
2026-05-07 12:36 49.49805 11.08462 1023 ft 31 kts 276°
2026-05-07 12:36 49.49874 11.07778 1202 ft 77 kts 277°
2026-05-07 12:36 49.49976 11.06863 1710 ft 97 kts 276°
2026-05-07 12:37 49.49477 11.06160 2169 ft 134 kts 191°
2026-05-07 12:37 49.48433 11.06350 2644 ft 169 kts 172°
2026-05-07 12:37 49.47381 11.07255 3049 ft 182 kts 127°
2026-05-07 12:37 49.47259 11.09152 3369 ft 177 kts 75°
2026-05-07 12:38 49.47291 11.11097 3320 ft 196 kts 102°
2026-05-07 12:38 49.46971 11.13093 3204 ft 187 kts 105°
2026-05-07 12:38 49.46673 11.15009 3078 ft 180 kts 104°
2026-05-07 12:38 49.46429 11.16868 3063 ft 179 kts 96°
2026-05-07 12:39 49.46322 11.18800 3063 ft 182 kts 95°
2026-05-07 12:39 49.46225 11.20741 3067 ft 183 kts 94°
2026-05-07 12:39 49.46118 11.22695 3065 ft 183 kts 94°
2026-05-07 12:39 49.46345 11.24551 3058 ft 178 kts 52°
2026-05-07 12:40 49.47356 11.25416 3060 ft 167 kts 357°
2026-05-07 12:40 49.48319 11.24679 3037 ft 157 kts 302°
2026-05-07 12:40 49.48522 11.23069 2869 ft 155 kts 271°
2026-05-07 12:40 49.48587 11.21445 2657 ft 147 kts 275°
2026-05-07 12:41 49.48695 11.20007 2479 ft 120 kts 278°
2026-05-07 12:41 49.48798 11.18839 2317 ft 102 kts 278°
2026-05-07 12:41 49.48886 11.17893 2185 ft 78 kts 277°
2026-05-07 12:41 49.48970 11.17106 2089 ft 76 kts 282°
2026-05-07 12:42 49.49061 11.16282 2009 ft 81 kts 275°
2026-05-07 12:42 49.49113 11.15349 1913 ft 86 kts 276°
2026-05-07 12:42 49.49212 11.14496 1783 ft 82 kts 278°
2026-05-07 12:42 49.49304 11.13632 1622 ft 83 kts 276°
2026-05-07 12:43 49.49404 11.12773 1528 ft 79 kts 273°
2026-05-07 12:43 49.49462 11.11928 1397 ft 83 kts 270°
2026-05-07 12:43 49.49538 11.11033 1269 ft 86 kts 278°
2026-05-07 12:43 49.49624 11.10127 1158 ft 83 kts 280°
2026-05-07 12:44 49.49714 11.09359 1046 ft 64 kts 275°
2026-05-07 12:44 49.49786 11.08630 1078 ft 83 kts 276°
2026-05-07 12:44 49.49786 11.07796 1688 ft 81 kts 222°
2026-05-07 12:44 49.49123 11.07697 1984 ft 113 kts 192°
2026-05-07 12:45 49.48219 11.07560 2338 ft 151 kts 186°
2026-05-07 12:45 49.47276 11.08353 2985 ft 177 kts 129°
2026-05-07 12:45 49.46845 11.10192 3013 ft 182 kts 104°
2026-05-07 12:45 49.46538 11.12010 3005 ft 171 kts 105°
2026-05-07 12:46 49.46261 11.13790 3005 ft 172 kts 103°
2026-05-07 12:46 49.45998 11.15584 3004 ft 172 kts 103°
2026-05-07 12:46 49.45721 11.17340 2995 ft 170 kts 104°
2026-05-07 12:46 49.45432 11.19108 2995 ft 171 kts 105°
2026-05-07 12:47 49.45150 11.20892 2991 ft 171 kts 104°
2026-05-07 12:47 49.44867 11.22685 2993 ft 172 kts 104°
2026-05-07 12:47 49.44902 11.24462 2989 ft 167 kts 59°
2026-05-07 12:47 49.45765 11.25397 2989 ft 154 kts
2026-05-07 12:48 49.46658 11.24736 2995 ft 146 kts 300°
2026-05-07 12:48 49.46950 11.23277 3007 ft 142 kts 283°
2026-05-07 12:48 49.47208 11.21809 3009 ft 141 kts 285°
2026-05-07 12:48 49.47450 11.20361 3010 ft 140 kts 283°
2026-05-07 12:49 49.47378 11.18902 3003 ft 145 kts 242°
2026-05-07 12:49 49.46481 11.18176 2997 ft 159 kts 184°
2026-05-07 12:49 49.45548 11.19035 2990 ft 167 kts 123°
2026-05-07 12:49 49.45241 11.20759 2999 ft 170 kts 101°
2026-05-07 12:50 49.44961 11.22552 3004 ft 174 kts 104°
2026-05-07 12:50 49.44755 11.24356 2996 ft 170 kts 83°
2026-05-07 12:50 49.45355 11.25792 2987 ft 160 kts 24°
2026-05-07 12:50 49.46415 11.26133 3007 ft 156 kts
2026-05-07 12:51 49.47436 11.25871 2995 ft 149 kts 319°
2026-05-07 12:51 49.48028 11.24623 3008 ft 145 kts 293°
2026-05-07 12:51 49.48290 11.23132 2884 ft 148 kts 281°
2026-05-07 12:51 49.48490 11.21586 2678 ft 145 kts 278°
2026-05-07 12:52 49.48630 11.20089 2494 ft 137 kts 278°
2026-05-07 12:52 49.48756 11.18784 2319 ft 114 kts 279°
2026-05-07 12:52 49.48894 11.17542 2146 ft 126 kts 280°
2026-05-07 12:52 49.49058 11.16202 1978 ft 127 kts 281°
2026-05-07 12:53 49.49240 11.14699 2563 ft 151 kts 281°
2026-05-07 12:53 49.49462 11.13127 3723 ft 143 kts 281°
2026-05-07 12:53 49.49598 11.11642 4479 ft 139 kts 276°
2026-05-07 12:53 49.49801 11.10198 4327 ft 143 kts 284°
2026-05-07 12:54 49.50072 11.08667 4071 ft 152 kts 284°
2026-05-07 12:54 49.50356 11.07073 3817 ft 155 kts 284°
2026-05-07 12:54 49.50630 11.05481 3703 ft 148 kts 282°
2026-05-07 12:54 49.50379 11.04006 3693 ft 161 kts 231°
2026-05-07 12:55 49.49218 11.03422 3701 ft 200 kts 179°
2026-05-07 12:55 49.47859 11.04310 3707 ft 237 kts 143°
2026-05-07 12:55 49.46984 11.06521 3708 ft 249 kts 109°
2026-05-07 12:55 49.46531 11.09134 3709 ft 255 kts 104°
2026-05-07 12:56 49.46158 11.11810 3708 ft 256 kts 100°
2026-05-07 12:56 49.45874 11.14522 3710 ft 258 kts 98°
2026-05-07 12:56 49.45595 11.17241 3704 ft 257 kts 99°
2026-05-07 12:56 49.45309 11.19956 3701 ft 256 kts 99°
2026-05-07 12:57 49.45028 11.22659 3695 ft 256 kts 99°
2026-05-07 12:57 49.44743 11.25365 3694 ft 257 kts 99°
2026-05-07 12:57 49.44474 11.27956 3691 ft 234 kts 99°
2026-05-07 12:57 49.44234 11.30367 3689 ft 225 kts 99°
2026-05-07 12:58 49.43991 11.32744 3685 ft 225 kts 101°
2026-05-07 12:58 49.43221 11.34795 3684 ft 223 kts 143°
2026-05-07 12:58 49.41820 11.35441 3686 ft 208 kts 191°
2026-05-07 12:58 49.40642 11.34381 3692 ft 197 kts 236°
2026-05-07 12:59 49.40364 11.32422 3691 ft 194 kts 280°
2026-05-07 12:59 49.41149 11.30774 3691 ft 199 kts 325°
2026-05-07 12:59 49.42526 11.30533 3688 ft 210 kts 10°
2026-05-07 12:59 49.43956 11.31096 3698 ft 214 kts
2026-05-07 13:00 49.45408 11.31449 3700 ft 208 kts
2026-05-07 13:00 49.46759 11.31019 3693 ft 198 kts 323°
2026-05-07 13:00 49.47635 11.29440 3639 ft 196 kts 295°
2026-05-07 13:00 49.47935 11.27406 3436 ft 192 kts 278°
2026-05-07 13:01 49.48079 11.25400 3176 ft 188 kts 278°
2026-05-07 13:01 49.48172 11.23396 2908 ft 186 kts 276°
2026-05-07 13:01 49.48435 11.21566 2677 ft 168 kts 283°
2026-05-07 13:01 49.48654 11.19878 2456 ft 154 kts 278°
2026-05-07 13:02 49.48829 11.18324 2256 ft 137 kts 282°
2026-05-07 13:02 49.48963 11.17042 2087 ft 105 kts 277°
2026-05-07 13:02 49.49047 11.16078 1935 ft 82 kts 280°
2026-05-07 13:02 49.49085 11.15197 1721 ft 91 kts 270°
2026-05-07 13:03 49.49186 11.14230 1753 ft 93 kts 278°
2026-05-07 13:03 49.49349 11.13242 1638 ft 98 kts 285°
2026-05-07 13:03 49.49464 11.12235 1532 ft 92 kts 269°
2026-05-07 13:03 49.49530 11.11268 1411 ft 90 kts 271°
2026-05-07 13:04 49.49614 11.10359 1307 ft 82 kts 274°
2026-05-07 13:04 49.49711 11.09521 1133 ft 81 kts 276°
2026-05-07 13:04 49.49786 11.08714 1042 ft 68 kts 274°
2026-05-07 13:04 49.49836 11.08122 1023 ft 46 kts 279°
2026-05-07 13:05 49.49877 11.07731 1026 ft 31 kts 276°
2026-05-07 13:05 49.49894 11.07535 1025 ft 25 kts 276°
2026-05-07 13:05 49.49920 11.07286 1021 ft 25 kts 277°
2026-05-07 13:05 49.49893 11.07027 1015 ft 26 kts 193°
2026-05-07 13:06 49.49842 11.07037 1015 ft 0 kts 163°
2026-05-07 13:06 49.49841 11.07038 1015 ft 2 kts 162°
2026-05-07 13:06 49.49781 11.07073 1016 ft 14 kts 154°
2026-05-07 13:06 49.49722 11.07215 1020 ft 20 kts 146°
2026-05-07 13:07 49.49571 11.07211 1020 ft 24 kts 189°
2026-05-07 13:07 49.49510 11.07031 1019 ft 18 kts 263°